Latest Weather Observations for Renmark Airport

IDS60801

Issued at 9:05 am CST Tuesday 2 September 2014 (issued every 30 minutes, with the page automatically refreshed every 10 minutes)

About weather observations | Map of weather stations | Latest weather observations for SA | Other Formats
Station Details ID: 024048 Name: RENMARK AERO Lat: -34.20 Lon: 140.68 Height: 31.5 m
Data from the previous 72 hours. | See also: Recent months at Renmark Airport
Date/Time
CST
Temp
°C
App
Temp
°C
Dew
Point
Rel
Hum
%
Delta-T
°C
Wind Press
QNH
hPa
Press
MSL
hPa
Rain
since 9 am
mm
Dir
 
Spd
km/h
Gust
km/h
Spd
kts
Gust
kts
02/09:00am 10.8 6.2 5.8 71 2.3 SSW 19 28 10 15 1023.7 1023.7 3.8
02/08:30am 9.7 5.0 5.3 74 2.0 SW 19 26 10 14 1023.4 1023.4 3.8
02/08:00am 8.5 3.6 5.3 80 1.4 SW 20 32 11 17 1023.0 1023.0 3.8
02/07:30am 7.5 4.0 5.6 88 0.8 WSW 13 19 7 10 1022.4 1022.4 3.8
02/07:00am 6.4 2.6 5.8 96 0.3 WSW 15 19 8 10 1022.1 1022.1 3.8
02/06:30am 6.2 2.4 5.8 97 0.2 WSW 15 20 8 11 1021.6 1021.6 3.8
02/06:00am 6.4 2.2 5.8 96 0.3 WSW 17 22 9 12 1020.9 1020.9 3.8
02/05:30am 6.5 3.0 5.5 93 0.4 WSW 13 20 7 11 1020.5 1020.5 3.8
02/05:00am 6.9 2.7 5.5 91 0.6 W 17 24 9 13 1020.0 1020.0 3.8
02/04:30am 7.0 3.1 5.5 90 0.7 WSW 15 20 8 11 1019.6 1019.6 3.8
02/04:00am 7.0 2.8 5.6 91 0.6 WSW 17 20 9 11 1019.4 1019.3 3.8
02/03:30am 7.2 3.3 5.5 89 0.8 W 15 20 8 11 1019.0 1018.9 3.8
02/03:00am 7.9 3.3 5.5 85 1.1 WSW 19 30 10 16 1018.9 1018.8 3.8
02/02:30am 8.1 3.3 5.6 84 1.1 WSW 20 28 11 15 1019.0 1018.9 3.8
02/02:00am 8.2 3.6 5.8 85 1.1 WSW 19 28 10 15 1018.7 1018.6 3.8
02/01:30am 7.8 4.1 6.3 90 0.7 WSW 15 20 8 11 1018.7 1018.6 3.8
02/01:00am 7.5 4.5 5.8 89 0.8 W 11 13 6 7 1018.8 1018.7 3.8
02/12:30am 8.1 4.3 5.7 85 1.1 WSW 15 19 8 10 1018.6 1018.5 3.8
02/12:00am 8.5 4.7 5.6 82 1.3 WSW 15 20 8 11 1018.4 1018.3 3.8
 
Date/Time
CST
Temp
°C
App
Temp
°C
Dew
Point
Rel
Hum
%
Delta-T
°C
Wind Press
QNH
hPa
Press
MSL
hPa
Rain
since 9 am
mm
Dir
 
Spd
km/h
Gust
km/h
Spd
kts
Gust
kts
01/11:30pm 8.2 4.4 5.8 85 1.1 WSW 15 20 8 11 1018.2 1018.1 3.8
01/11:00pm 7.2 4.2 5.8 91 0.6 WSW 11 13 6 7 1018.0 1017.9 3.8
01/10:30pm 7.7 4.7 6.0 89 0.8 W 11 15 6 8 1018.0 1017.9 3.8
01/10:00pm 7.4 4.6 5.2 86 1.0 W 9 9 5 5 1017.6 1017.5 3.8
01/09:30pm 8.5 6.1 5.4 81 1.4 WSW 7 9 4 5 1017.2 1017.1 3.8
01/09:00pm 9.3 6.2 5.5 77 1.7 W 11 15 6 8 1017.1 1017.0 3.8
01/08:30pm 10.4 7.3 5.4 71 2.3 SW 11 17 6 9 1016.6 1016.5 3.8
01/08:00pm 11.1 7.3 5.8 70 2.5 SW 15 22 8 12 1016.4 1016.3 3.8
01/07:30pm 11.3 8.3 6.0 70 2.5 SW 11 15 6 8 1016.0 1015.9 3.8
01/07:00pm 12.2 8.4 6.0 66 2.9 SW 15 20 8 11 1015.5 1015.4 3.8
01/06:30pm 12.3 8.7 5.0 61 3.4 SW 13 19 7 10 1014.9 1014.9 3.8
01/06:00pm 13.2 9.1 4.6 56 4.0 WSW 15 20 8 11 1014.4 1014.4 3.8
01/05:30pm 14.6 10.4 5.7 55 4.2 WSW 17 22 9 12 1014.0 1014.0 3.8
01/05:00pm 14.8 13.0 9.4 70 2.8 S 9 17 5 9 1013.6 1013.6 3.8
01/04:30pm 14.8 12.0 10.0 73 2.5 SSW 15 33 8 18 1013.4 1013.4 3.8
01/04:00pm 14.7 12.4 10.3 75 2.3 SW 13 17 7 9 1013.2 1013.2 3.8
01/03:30pm 14.4 11.4 10.6 78 2.0 WSW 17 24 9 13 1013.0 1013.0 3.8
01/03:00pm 12.9 10.6 10.6 86 1.2 WSW 13 17 7 9 1012.8 1012.8 3.8
01/02:30pm 12.4 11.4 12.2 99 0.1 WSW 9 13 5 7 1012.8 1012.8 3.8
01/02:00pm 11.5 9.5 11.5 100 0.0 W 13 17 7 9 1013.0 1013.0 3.8
01/01:30pm 11.3 8.9 11.3 100 0.0 WSW 15 22 8 12 1013.1 1013.1 3.2
01/01:00pm 11.5 9.1 11.5 100 0.0 SSW 15 22 8 12 1013.2 1013.2 2.0
01/12:30pm 12.8 10.4 12.8 100 0.0 SW 17 22 9 12 1013.3 1013.3 1.0
01/12:00pm 13.4 12.1 12.5 94 0.5 W 11 13 6 7 1013.3 1013.3 0.6
01/11:30am 13.2 11.5 12.3 94 0.5 W 13 20 7 11 1013.7 1013.7 0.6
01/11:00am 13.0 11.7 11.2 89 0.9 NW 9 11 5 6 1013.6 1013.6 0.4
01/10:30am 12.9 11.7 11.6 92 0.7 NNW 9 13 5 7 1013.4 1013.4 0.4
01/10:00am 12.2 11.2 12.2 100 0.0 WSW 9 13 5 7 1013.6 1013.6 0.4
01/09:30am 11.8 12.4 11.8 100 0.0 CALM 0 0 0 0 1012.9 1012.9 0.4
01/09:00am 11.5 10.3 11.5 100 0.0 WSW 9 17 5 9 1013.7 1013.8 4.0
01/08:30am 11.6 8.9 11.6 100 0.0 WSW 17 22 9 12 1014.1 1014.2 3.0
01/08:00am 12.4 11.4 12.4 100 0.0 SW 9 13 5 7 1013.3 1013.4 1.4
01/07:30am 12.5 12.0 12.5 100 0.0 WSW 7 9 4 5 1012.6 1012.7 0.4
01/07:00am 12.6 11.6 12.4 99 0.1 WNW 9 9 5 5 1012.4 1012.5 0.4
01/06:30am 12.6 11.6 11.0 90 0.8 SSW 7 9 4 5 1011.8 1011.9 0.0
01/06:00am 13.4 13.3 9.3 76 2.1 CALM 0 0 0 0 1011.6 1011.7 0.0
01/05:30am 14.2 12.3 7.7 65 3.2 SW 7 13 4 7 1011.3 1011.4 0.0
01/05:00am 14.2 11.7 6.6 60 3.7 WSW 9 11 5 6 1011.3 1011.4 0.0
01/04:30am 14.7 12.2 6.5 58 4.0 SW 9 11 5 6 1010.8 1010.9 0.0
01/04:00am 15.2 12.6 6.2 55 4.3 SSW 9 13 5 7 1010.7 1010.8 0.0
01/03:30am 15.8 11.8 5.1 49 5.1 SW 15 20 8 11 1010.4 1010.5 0.0
01/03:00am 16.1 11.9 1.8 38 6.4 SW 13 17 7 9 1010.7 1010.8 0.0
01/02:30am 17.1 11.9 0.3 32 7.3 WSW 17 22 9 12 1010.6 1010.7 0.0
01/02:00am 18.3 11.8 -2.6 24 8.6 W 22 32 12 17 1010.7 1010.8 0.0
01/01:30am 18.7 12.6 -4.0 21 9.2 NNW 19 22 10 12 1009.8 1009.9 0.0
01/01:00am 19.3 13.0 -4.2 20 9.5 N 20 30 11 16 1009.8 1009.9 0.0
01/12:30am 19.5 12.8 -4.0 20 9.6 N 22 30 12 16 1009.4 1009.5 0.0
01/12:00am 19.7 13.0 -4.5 19 9.8 N 22 30 12 16 1009.9 1010.0 0.0
 
Date/Time
CST
Temp
°C
App
Temp
°C
Dew
Point
Rel
Hum
%
Delta-T
°C
Wind Press
QNH
hPa
Press
MSL
hPa
Rain
since 9 am
mm
Dir
 
Spd
km/h
Gust
km/h
Spd
kts
Gust
kts
31/11:30pm 19.5 13.4 -4.0 20 9.6 N 19 28 10 15 1010.1 1010.2 0.0
31/11:00pm 17.8 12.5 -3.6 23 8.6 N 15 20 8 11 1010.2 1010.3 0.0
31/10:30pm 18.4 12.3 -3.7 22 8.9 N 19 24 10 13 1010.4 1010.5 0.0
31/10:00pm 18.1 12.8 -3.3 23 8.7 NNE 15 19 8 10 1010.8 1010.9 0.0
31/09:30pm 19.3 13.9 -4.2 20 9.5 N 15 19 8 10 1011.5 1011.6 0.0
31/09:00pm 19.8 14.7 -5.2 18 9.9 N 13 15 7 8 1011.9 1012.0 0.0
31/08:30pm 19.8 14.4 -4.5 19 9.8 N 15 20 8 11 1011.8 1011.9 0.0
31/08:00pm 20.1 14.7 -4.9 18 10.0 N 15 19 8 10 1011.7 1011.8 0.0
31/07:30pm 20.3 15.0 -4.0 19 9.9 N 15 20 8 11 1011.7 1011.8 0.0
31/07:00pm 20.0 14.2 -4.3 19 9.9 NNE 17 20 9 11 1011.3 1011.4 0.0
31/06:30pm 21.0 15.5 -5.0 17 10.5 N 15 17 8 9 1011.4 1011.5 0.0
31/06:00pm 22.4 16.9 -5.5 15 11.3 N 15 20 8 11 1011.7 1011.8 0.0
31/05:30pm 23.3 18.1 -5.7 14 11.8 N 13 22 7 12 1011.8 1011.9 0.0
31/05:00pm 24.1 18.2 -6.0 13 12.3 NNW 17 22 9 12 1011.9 1012.0 0.0
31/04:30pm 24.5 18.6 -5.7 13 12.4 NNW 17 26 9 14 1011.9 1012.0 0.0
31/04:00pm 24.6 18.3 -5.6 13 12.5 NNW 19 33 10 18 1012.1 1012.2 0.0
31/03:30pm 25.0 17.4 -5.3 13 12.6 NNW 26 35 14 19 1012.1 1012.2 0.0
31/03:00pm 25.4 19.0 -5.0 13 12.8 NNW 20 30 11 16 1012.1 1012.2 0.0
31/02:35pm 25.7 17.7 -5.8 12 13.1 NNW 28 46 15 25 1012.7 1012.8 0.0
31/02:30pm 25.6 18.0 -5.9 12 13.1 NNW 26 37 14 20 1012.7 1012.8 0.0
31/02:18pm 25.8 17.8 -5.7 12 13.1 NW 28 46 15 25 1013.0 1013.1 0.0
31/02:00pm 25.6 17.2 -5.9 12 13.1 NW 30 43 16 23 1013.0 1013.1 0.0
31/01:30pm 25.2 16.4 -6.2 12 12.9 NW 32 54 17 29 1013.7 1013.8 0.0
31/01:28pm 25.1 16.8 -5.2 13 12.7 NW 30 54 16 29 1013.7 1013.8 0.0
31/01:00pm 24.9 16.3 -4.4 14 12.4 NNW 32 43 17 23 1014.3 1014.4 0.0
31/12:30pm 25.3 17.1 -4.1 14 12.6 NW 30 41 16 22 1014.7 1014.8 0.0
31/12:00pm 24.5 17.1 -3.8 15 12.1 NW 26 37 14 20 1015.5 1015.5 0.0
31/11:30am 24.6 16.8 -3.7 15 12.1 NW 28 39 15 21 1016.0 1016.0 0.0
31/11:00am 23.8 16.9 -2.7 17 11.5 NW 24 33 13 18 1016.5 1016.5 0.0
31/10:30am 22.8 16.3 -2.7 18 10.9 NNW 22 32 12 17 1017.1 1017.1 0.0
31/10:00am 21.2 14.7 -2.6 20 10.1 NNW 22 33 12 18 1017.3 1017.3 0.0
31/09:30am 20.7 14.6 -2.4 21 9.8 NW 20 30 11 16 1017.7 1017.7 0.0
31/09:00am 19.2 13.6 -0.2 27 8.5 N 19 24 10 13 1018.1 1018.1 0.0
31/08:30am 17.3 12.8 0.0 31 7.5 N 13 19 7 10 1018.1 1018.1 0.0
31/08:00am 14.4 10.9 1.3 41 5.7 N 9 13 5 7 1017.9 1017.9 0.0
31/07:30am 11.1 8.1 2.2 54 3.8 NNE 7 11 4 6 1017.7 1017.7 0.0
31/07:29am 10.9 7.9 2.2 55 3.7 NNE 7 9 4 5 1017.7 1017.7 0.0
31/07:00am 5.8 2.8 1.0 71 1.9 N 6 7 3 4 1017.7 1017.7 0.0
31/06:30am 6.4 3.1 0.1 64 2.4 NNE 7 9 4 5 1017.5 1017.5 0.0
31/06:00am 5.4 2.7 0.2 69 2.0 NE 4 9 2 5 1017.4 1017.4 0.0
31/05:30am 7.3 4.1 0.5 62 2.7 N 7 9 4 5 1017.3 1017.3 0.0
31/05:00am 8.2 6.3 0.4 58 3.1 CALM 0 2 0 1 1017.1 1017.1 0.0
31/04:30am 7.9 3.9 0.6 60 2.9 NNE 11 15 6 8 1017.2 1017.2 0.0
31/04:00am 9.0 5.7 0.2 54 3.5 NW 7 9 4 5 1017.0 1017.0 0.0
31/03:30am 8.7 4.7 0.4 56 3.3 WNW 11 13 6 7 1017.0 1017.0 0.0
31/03:00am 8.7 4.7 0.2 55 3.4 NW 11 13 6 7 1017.3 1017.3 0.0
31/02:30am 6.8 3.2 0.3 63 2.5 NW 9 11 5 6 1017.6 1017.6 0.0
31/02:00am 6.0 3.0 0.8 69 2.0 NNW 6 9 3 5 1017.7 1017.7 0.0
31/01:30am 6.6 3.4 0.5 65 2.4 NNE 7 9 4 5 1018.0 1018.0 0.0
31/01:00am 7.6 5.8 1.0 63 2.7 CALM 0 0 0 0 1018.2 1018.2 0.0
31/12:30am 6.5 4.6 0.8 67 2.2 CALM 0 0 0 0 1018.3 1018.3 0.0
31/12:00am 7.4 3.9 1.0 64 2.6 NNE 9 11 5 6 1018.3 1018.3 0.0
 
Date/Time
CST
Temp
°C
App
Temp
°C
Dew
Point
Rel
Hum
%
Delta-T
°C
Wind Press
QNH
hPa
Press
MSL
hPa
Rain
since 9 am
mm
Dir
 
Spd
km/h
Gust
km/h
Spd
kts
Gust
kts
30/11:30pm 7.2 4.5 0.6 63 2.6 WSW 4 7 2 4 1018.6 1018.6 0.0
30/11:00pm 7.5 4.3 0.5 61 2.8 NNE 7 9 4 5 1018.8 1018.8 0.0
30/10:30pm 8.1 6.2 0.6 59 3.0 CALM 0 2 0 1 1019.1 1019.1 0.0
30/10:00pm 8.9 7.1 0.9 57 3.2 CALM 0 0 0 0 1019.2 1019.2 0.0
30/09:30pm 9.3 7.5 1.2 57 3.3 CALM 0 0 0 0 1019.5 1019.5 0.0
30/09:00pm 10.2 8.1 1.6 55 3.6 W 2 6 1 3 1019.7 1019.7 0.0
30/08:30pm 10.9 9.2 1.7 53 3.9 CALM 0 0 0 0 1019.8 1019.8 0.0
30/08:00pm 12.3 10.6 1.9 49 4.5 CALM 0 0 0 0 1019.7 1019.7 0.0
30/07:30pm 13.8 12.1 1.8 44 5.2 CALM 0 0 0 0 1019.6 1019.6 0.0
30/07:00pm 15.6 14.0 2.4 41 5.9 CALM 0 2 0 1 1019.4 1019.4 0.0
30/06:30pm 19.1 15.6 1.1 30 8.1 ENE 9 9 5 5 1019.3 1019.3 0.0
30/06:00pm 22.1 19.3 -0.6 22 10.1 E 4 9 2 5 1019.1 1019.1 0.0
30/05:30pm 23.3 21.1 1.0 23 10.3 SE 2 6 1 3 1019.1 1019.1 0.0
30/05:00pm 24.8 22.4 -0.4 19 11.5 ENE 2 6 1 3 1019.2 1019.2 0.0
30/04:30pm 25.1 21.6 -1.6 17 11.9 NE 7 13 4 7 1019.2 1019.2 0.0
30/04:00pm 25.7 22.1 -2.0 16 12.4 NNW 7 15 4 8 1019.1 1019.1 0.0
30/03:30pm 26.1 22.2 -1.7 16 12.5 WNW 9 19 5 10 1019.2 1019.2 0.0
30/03:00pm 25.7 21.8 -1.2 17 12.1 NNW 9 15 5 8 1019.4 1019.4 0.0
30/02:30pm 25.4 20.8 -1.4 17 12.0 NW 13 19 7 10 1019.8 1019.8 0.0
30/02:00pm 25.8 21.2 -1.1 17 12.2 WNW 13 22 7 12 1020.2 1020.2 0.0
30/01:30pm 25.5 21.0 -0.5 18 11.9 N 13 19 7 10 1020.7 1020.7 0.0
30/01:00pm 24.9 20.3 -1.0 18 11.7 N 13 20 7 11 1021.1 1021.1 0.0
30/12:30pm 24.8 21.0 -0.4 19 11.5 WSW 9 19 5 10 1021.8 1021.8 0.0
30/12:00pm 24.4 20.5 1.3 22 10.8 NE 11 26 6 14 1022.4 1022.4 0.0
30/11:30am 23.7 20.8 2.5 25 10.1 NNE 7 13 4 7 1022.9 1022.9 0.0
30/11:00am 22.3 19.5 3.4 29 9.1 N 7 13 4 7 1023.3 1023.3 0.0
30/10:30am 20.5 18.1 4.1 34 7.9 ENE 6 9 3 5 1023.7 1023.7 0.0
30/10:00am 18.9 16.3 4.3 38 7.0 ENE 7 11 4 6 1023.9 1023.9 0.0
30/09:30am 17.3 14.8 3.9 41 6.2 E 6 7 3 4 1024.2 1024.2 0.0

Other Formats:

Comma delimited format used in spreadsheet applications
http://www.bom.gov.au/fwo/IDS60801/IDS60801.95687.axf

JavaScript Object Notation format (JSON) in row-major order
http://www.bom.gov.au/fwo/IDS60801/IDS60801.95687.json